sensor_id;sensor_type;location;lat;lon;timestamp;pressure;altitude;pressure_sealevel;temperature;humidity
77867;BME280;67271;59.120;37.970;2024-03-02T00:00:19;101594.34;;;1.41;82.95
77867;BME280;67271;59.120;37.970;2024-03-02T00:02:48;101602.97;;;1.45;82.41
77867;BME280;67271;59.120;37.970;2024-03-02T00:05:19;101599.44;;;1.44;82.45
77867;BME280;67271;59.120;37.970;2024-03-02T00:07:51;101606.31;;;1.48;82.77
77867;BME280;67271;59.120;37.970;2024-03-02T00:10:42;101607.34;;;1.46;82.64
77867;BME280;67271;59.120;37.970;2024-03-02T00:13:08;101604.88;;;1.43;82.42
77867;BME280;67271;59.120;37.970;2024-03-02T00:15:54;101614.81;;;1.41;82.76
77867;BME280;67271;59.120;37.970;2024-03-02T00:18:30;101605.97;;;1.40;82.55
77867;BME280;67271;59.120;37.970;2024-03-02T00:20:57;101609.25;;;1.44;82.54
77867;BME280;67271;59.120;37.970;2024-03-02T00:23:24;101610.22;;;1.43;82.54
77867;BME280;67271;59.120;37.970;2024-03-02T00:25:54;101605.88;;;1.42;82.81
77867;BME280;67271;59.120;37.970;2024-03-02T00:28:36;101600.53;;;1.42;82.73
77867;BME280;67271;59.120;37.970;2024-03-02T00:31:07;101604.88;;;1.43;82.63
77867;BME280;67271;59.120;37.970;2024-03-02T00:33:35;101600.53;;;1.42;82.64
77867;BME280;67271;59.120;37.970;2024-03-02T00:36:03;101598.16;;;1.37;82.79
77867;BME280;67271;59.120;37.970;2024-03-02T00:38:30;101604.56;;;1.35;82.65
77867;BME280;67271;59.120;37.970;2024-03-02T00:40:59;101597.50;;;1.34;82.80
77867;BME280;67271;59.120;37.970;2024-03-02T00:46:00;101600.81;;;1.37;82.66
77867;BME280;67271;59.120;37.970;2024-03-02T00:48:25;101597.09;;;1.40;82.60
77867;BME280;67271;59.120;37.970;2024-03-02T00:50:54;101594.34;;;1.41;82.39
77867;BME280;67271;59.120;37.970;2024-03-02T00:53:23;101597.97;;;1.40;82.84
77867;BME280;67271;59.120;37.970;2024-03-02T00:55:52;101594.53;;;1.38;82.37
77867;BME280;67271;59.120;37.970;2024-03-02T00:58:18;101589.41;;;1.35;82.37
77867;BME280;67271;59.120;37.970;2024-03-02T01:00:44;101587.56;;;1.36;83.01
77867;BME280;67271;59.120;37.970;2024-03-02T01:03:10;101594.44;;;1.40;82.94
77867;BME280;67271;59.120;37.970;2024-03-02T01:05:36;101597.09;;;1.40;82.68
77867;BME280;67271;59.120;37.970;2024-03-02T01:08:02;101588.16;;;1.41;82.29
77867;BME280;67271;59.120;37.970;2024-03-02T01:10:28;101599.78;;;1.40;82.75
77867;BME280;67271;59.120;37.970;2024-03-02T01:12:54;101598.06;;;1.39;82.40
77867;BME280;67271;59.120;37.970;2024-03-02T01:15:20;101601.78;;;1.36;82.67
77867;BME280;67271;59.120;37.970;2024-03-02T01:17:46;101603.03;;;1.31;82.42
77867;BME280;67271;59.120;37.970;2024-03-02T01:20:12;101597.25;;;1.24;82.32
77867;BME280;67271;59.120;37.970;2024-03-02T01:22:38;101598.31;;;1.22;82.55
77867;BME280;67271;59.120;37.970;2024-03-02T01:25:04;101590.44;;;1.20;82.67
77867;BME280;67271;59.120;37.970;2024-03-02T01:27:30;101596.50;;;1.22;82.40
77867;BME280;67271;59.120;37.970;2024-03-02T01:29:56;101595.56;;;1.23;82.40
77867;BME280;67271;59.120;37.970;2024-03-02T01:32:22;101596.31;;;1.25;82.57
77867;BME280;67271;59.120;37.970;2024-03-02T01:34:47;101603.44;;;1.25;82.14
77867;BME280;67271;59.120;37.970;2024-03-02T01:37:13;101601.84;;;1.22;81.94
77867;BME280;67271;59.120;37.970;2024-03-02T01:39:39;101598.53;;;1.19;82.12
77867;BME280;67271;59.120;37.970;2024-03-02T01:42:05;101595.88;;;1.19;81.93
77867;BME280;67271;59.120;37.970;2024-03-02T01:44:31;101603.88;;;1.19;81.85
77867;BME280;67271;59.120;37.970;2024-03-02T01:46:57;101606.63;;;1.17;82.22
77867;BME280;67271;59.120;37.970;2024-03-02T01:49:23;101608.75;;;1.12;82.06
77867;BME280;67271;59.120;37.970;2024-03-02T01:51:49;101610.66;;;1.10;81.91
77867;BME280;67271;59.120;37.970;2024-03-02T01:54:15;101612.44;;;1.09;81.92
77867;BME280;67271;59.120;37.970;2024-03-02T01:56:41;101607.31;;;1.06;82.32
77867;BME280;67271;59.120;37.970;2024-03-02T01:59:07;101616.16;;;1.07;82.17
77867;BME280;67271;59.120;37.970;2024-03-02T02:04:24;101609.25;;;1.04;81.75
77867;BME280;67271;59.120;37.970;2024-03-02T02:06:53;101609.97;;;1.06;81.82
77867;BME280;67271;59.120;37.970;2024-03-02T02:09:19;101616.16;;;1.07;82.12
77867;BME280;67271;59.120;37.970;2024-03-02T02:11:45;101610.19;;;1.03;81.89
77867;BME280;67271;59.120;37.970;2024-03-02T02:14:11;101605.06;;;1.00;82.07
77867;BME280;67271;59.120;37.970;2024-03-02T02:16:37;101619.31;;;0.99;82.28
77867;BME280;67271;59.120;37.970;2024-03-02T02:19:03;101607.63;;;1.02;81.97
77867;BME280;67271;59.120;37.970;2024-03-02T02:21:29;101613.81;;;1.02;81.99
77867;BME280;67271;59.120;37.970;2024-03-02T02:23:55;101612.09;;;1.01;82.36
77867;BME280;67271;59.120;37.970;2024-03-02T02:26:20;101614.09;;;0.98;82.08
77867;BME280;67271;59.120;37.970;2024-03-02T02:28:46;101613.53;;;0.93;81.90
77867;BME280;67271;59.120;37.970;2024-03-02T02:31:13;101610.97;;;0.91;82.22
77867;BME280;67271;59.120;37.970;2024-03-02T02:33:40;101609.28;;;0.90;82.17
77867;BME280;67271;59.120;37.970;2024-03-02T02:36:06;101613.75;;;0.90;82.26
77867;BME280;67271;59.120;37.970;2024-03-02T02:38:38;101611.81;;;0.92;82.27
77867;BME280;67271;59.120;37.970;2024-03-02T02:41:05;101611.81;;;0.92;82.11
77867;BME280;67271;59.120;37.970;2024-03-02T02:43:30;101610.09;;;0.91;82.50
77867;BME280;67271;59.120;37.970;2024-03-02T02:45:56;101616.13;;;0.94;82.23
77867;BME280;67271;59.120;37.970;2024-03-02T02:48:22;101614.41;;;0.93;82.34
77867;BME280;67271;59.120;37.970;2024-03-02T02:50:48;101609.06;;;0.93;82.67
77867;BME280;67271;59.120;37.970;2024-03-02T02:53:14;101611.66;;;0.95;82.54
77867;BME280;67271;59.120;37.970;2024-03-02T02:55:40;101612.69;;;0.92;82.28
77867;BME280;67271;59.120;37.970;2024-03-02T02:58:06;101611.94;;;0.90;82.23
77867;BME280;67271;59.120;37.970;2024-03-02T03:00:32;101612.78;;;0.91;82.23
77867;BME280;67271;59.120;37.970;2024-03-02T03:02:58;101608.22;;;0.93;81.96
77867;BME280;67271;59.120;37.970;2024-03-02T03:05:24;101608.13;;;0.94;82.17
77867;BME280;67271;59.120;37.970;2024-03-02T03:07:50;101610.69;;;0.96;82.47
77867;BME280;67271;59.120;37.970;2024-03-02T03:10:16;101609.94;;;0.94;82.52
77867;BME280;67271;59.120;37.970;2024-03-02T03:12:43;101609.28;;;0.90;82.68
77867;BME280;67271;59.120;37.970;2024-03-02T03:15:09;101616.31;;;0.91;82.61
77867;BME280;67271;59.120;37.970;2024-03-02T03:17:37;101604.13;;;0.87;82.17
77867;BME280;67271;59.120;37.970;2024-03-02T03:20:03;101602.44;;;0.86;82.35
77867;BME280;67271;59.120;37.970;2024-03-02T03:22:30;101606.72;;;0.89;82.52
77867;BME280;67271;59.120;37.970;2024-03-02T03:24:59;101604.78;;;0.91;82.34
77867;BME280;67271;59.120;37.970;2024-03-02T03:27:25;101602.03;;;0.92;82.64
77867;BME280;67271;59.120;37.970;2024-03-02T03:29:51;101606.41;;;0.93;82.58
77867;BME280;67271;59.120;37.970;2024-03-02T03:32:17;101605.44;;;0.94;82.74
77867;BME280;67271;59.120;37.970;2024-03-02T03:34:43;101601.84;;;0.95;82.69
77867;BME280;67271;59.120;37.970;2024-03-02T03:37:09;101598.22;;;0.96;82.85
77867;BME280;67271;59.120;37.970;2024-03-02T03:39:35;101606.94;;;0.98;82.63
77867;BME280;67271;59.120;37.970;2024-03-02T03:42:01;101601.63;;;0.98;82.63
77867;BME280;67271;59.120;37.970;2024-03-02T03:44:27;101600.66;;;0.99;82.86
77867;BME280;67271;59.120;37.970;2024-03-02T03:46:53;101607.53;;;1.03;82.49
77867;BME280;67271;59.120;37.970;2024-03-02T03:49:19;101609.97;;;1.06;82.77
77867;BME280;67271;59.120;37.970;2024-03-02T03:51:45;101607.22;;;1.08;82.59
77867;BME280;67271;59.120;37.970;2024-03-02T03:54:10;101604.66;;;1.06;82.65
77867;BME280;67271;59.120;37.970;2024-03-02T03:56:37;101611.06;;;1.04;82.51
77867;BME280;67271;59.120;37.970;2024-03-02T03:59:03;101609.13;;;1.06;82.68
77867;BME280;67271;59.120;37.970;2024-03-02T04:01:30;101609.03;;;1.07;82.52
77867;BME280;67271;59.120;37.970;2024-03-02T04:03:57;101610.56;;;1.11;81.97
77867;BME280;67271;59.120;37.970;2024-03-02T04:06:24;101612.34;;;1.11;82.43
77867;BME280;67271;59.120;37.970;2024-03-02T04:08:49;101614.06;;;1.12;82.07
77867;BME280;67271;59.120;37.970;2024-03-02T04:11:15;101600.63;;;1.13;82.04
77867;BME280;67271;59.120;37.970;2024-03-02T04:13:41;101603.09;;;1.16;82.13
77867;BME280;67271;59.120;37.970;2024-03-02T04:16:07;101601.28;;;1.17;82.05
77867;BME280;67271;59.120;37.970;2024-03-02T04:18:33;101607.56;;;1.16;81.91
77867;BME280;67271;59.120;37.970;2024-03-02T04:20:58;101602.16;;;1.17;82.18
77867;BME280;67271;59.120;37.970;2024-03-02T04:23:28;101609.09;;;1.20;82.19
77867;BME280;67271;59.120;37.970;2024-03-02T04:25:53;101612.59;;;1.21;81.83
77867;BME280;67271;59.120;37.970;2024-03-02T04:28:19;101608.97;;;1.22;81.87
77867;BME280;67271;59.120;37.970;2024-03-02T04:30:45;101613.56;;;1.20;81.68
77867;BME280;67271;59.120;37.970;2024-03-02T04:33:11;101612.81;;;1.17;81.80
77867;BME280;67271;59.120;37.970;2024-03-02T04:35:37;101609.94;;;1.21;82.01
77867;BME280;67271;59.120;37.970;2024-03-02T04:38:03;101617.19;;;1.19;81.53
77867;BME280;67271;59.120;37.970;2024-03-02T04:40:29;101610.16;;;1.17;81.86
77867;BME280;67271;59.120;37.970;2024-03-02T04:42:55;101612.81;;;1.17;81.96
77867;BME280;67271;59.120;37.970;2024-03-02T04:45:20;101613.25;;;1.24;81.82
77867;BME280;67271;59.120;37.970;2024-03-02T04:47:46;101611.44;;;1.25;81.73
77867;BME280;67271;59.120;37.970;2024-03-02T04:50:12;101617.53;;;1.27;81.84
77867;BME280;67271;59.120;37.970;2024-03-02T04:52:38;101613.81;;;1.29;81.52
77867;BME280;67271;59.120;37.970;2024-03-02T04:55:04;101622.56;;;1.31;81.58
77867;BME280;67271;59.120;37.970;2024-03-02T04:57:43;101615.59;;;1.29;81.55
77867;BME280;67271;59.120;37.970;2024-03-02T05:00:10;101617.53;;;1.27;81.58
77867;BME280;67271;59.120;37.970;2024-03-02T05:02:36;101618.19;;;1.30;81.65
77867;BME280;67271;59.120;37.970;2024-03-02T05:05:02;101615.41;;;1.32;81.22
77867;BME280;67271;59.120;37.970;2024-03-02T05:07:28;101615.22;;;1.35;81.64
77867;BME280;67271;59.120;37.970;2024-03-02T05:09:54;101615.00;;;1.38;81.37
77867;BME280;67271;59.120;37.970;2024-03-02T05:12:20;101619.59;;;1.36;81.29
77867;BME280;67271;59.120;37.970;2024-03-02T05:15:06;101618.84;;;1.34;81.09
77867;BME280;67271;59.120;37.970;2024-03-02T05:17:33;101611.38;;;1.39;81.19
77867;BME280;67271;59.120;37.970;2024-03-02T05:19:59;101611.94;;;1.44;80.96
77867;BME280;67271;59.120;37.970;2024-03-02T05:22:25;101607.16;;;1.49;81.00
77867;BME280;67271;59.120;37.970;2024-03-02T05:24:50;101601.41;;;1.55;80.93
77867;BME280;67271;59.120;37.970;2024-03-02T05:27:16;101601.94;;;1.60;80.61
77867;BME280;67271;59.120;37.970;2024-03-02T05:29:42;101610.38;;;1.67;80.76
77867;BME280;67271;59.120;37.970;2024-03-02T05:32:08;101603.16;;;1.69;80.26
77867;BME280;67271;59.120;37.970;2024-03-02T05:34:34;101602.09;;;1.71;80.73
77867;BME280;67271;59.120;37.970;2024-03-02T05:37:01;101599.31;;;1.73;80.14
77867;BME280;67271;59.120;37.970;2024-03-02T05:39:27;101594.63;;;1.76;80.40
77867;BME280;67271;59.120;37.970;2024-03-02T05:41:53;101600.63;;;1.80;80.04
77867;BME280;67271;59.120;37.970;2024-03-02T05:44:19;101604.25;;;1.79;79.94
77867;BME280;67271;59.120;37.970;2024-03-02T05:46:45;101607.75;;;1.79;79.90
77867;BME280;67271;59.120;37.970;2024-03-02T05:49:11;101611.06;;;1.83;80.08
77867;BME280;67271;59.120;37.970;2024-03-02T05:51:37;101603.81;;;1.85;80.14
77867;BME280;67271;59.120;37.970;2024-03-02T05:54:03;101609.56;;;1.79;79.89
77867;BME280;67271;59.120;37.970;2024-03-02T05:56:29;101614.06;;;1.78;79.95
77867;BME280;67271;59.120;37.970;2024-03-02T05:58:55;101612.25;;;1.79;80.16
77867;BME280;67271;59.120;37.970;2024-03-02T06:01:44;101618.78;;;1.87;80.07
77867;BME280;67271;59.120;37.970;2024-03-02T06:04:10;101615.69;;;1.93;79.62
77867;BME280;67271;59.120;37.970;2024-03-02T06:06:36;101617.91;;;2.00;79.38
77867;BME280;67271;59.120;37.970;2024-03-02T06:09:03;101620.91;;;2.08;79.74
77867;BME280;67271;59.120;37.970;2024-03-02T06:11:50;101624.78;;;2.16;79.28
77867;BME280;67271;59.120;37.970;2024-03-02T06:14:16;101621.78;;;2.21;79.05
77867;BME280;67271;59.120;37.970;2024-03-02T06:16:42;101626.47;;;2.30;79.30
77867;BME280;67271;59.120;37.970;2024-03-02T06:19:08;101628.50;;;2.39;79.23
77867;BME280;67271;59.120;37.970;2024-03-02T06:21:33;101632.47;;;2.46;78.95
77867;BME280;67271;59.120;37.970;2024-03-02T06:23:59;101637.69;;;2.48;78.87
77867;BME280;67271;59.120;37.970;2024-03-02T06:26:26;101638.41;;;2.50;78.54
77867;BME280;67271;59.120;37.970;2024-03-02T06:28:52;101634.25;;;2.58;78.60
77867;BME280;67271;59.120;37.970;2024-03-02T06:31:18;101641.97;;;2.63;78.44
77867;BME280;67271;59.120;37.970;2024-03-02T06:33:44;101642.06;;;2.61;78.42
77867;BME280;67271;59.120;37.970;2024-03-02T06:36:10;101643.94;;;2.72;78.57
77867;BME280;67271;59.120;37.970;2024-03-02T06:38:37;101638.19;;;2.78;78.20
77867;BME280;67271;59.120;37.970;2024-03-02T06:41:03;101645.63;;;2.86;78.11
77867;BME280;67271;59.120;37.970;2024-03-02T06:43:29;101642.63;;;2.90;77.65
77867;BME280;67271;59.120;37.970;2024-03-02T06:45:55;101642.28;;;2.95;77.22
77867;BME280;67271;59.120;37.970;2024-03-02T06:48:21;101648.59;;;2.94;77.46
77867;BME280;67271;59.120;37.970;2024-03-02T06:50:47;101649.59;;;2.93;77.16
77867;BME280;67271;59.120;37.970;2024-03-02T06:53:16;101652.88;;;2.96;77.57
77867;BME280;67271;59.120;37.970;2024-03-02T06:55:45;101664.44;;;2.97;77.55
77867;BME280;67271;59.120;37.970;2024-03-02T06:58:12;101659.09;;;2.97;77.02
77867;BME280;67271;59.120;37.970;2024-03-02T07:00:38;101659.94;;;2.97;77.47
77867;BME280;67271;59.120;37.970;2024-03-02T07:03:04;101656.06;;;3.01;77.34
77867;BME280;67271;59.120;37.970;2024-03-02T07:05:30;101654.56;;;3.10;76.99
77867;BME280;67271;59.120;37.970;2024-03-02T07:07:56;101662.91;;;3.05;77.02
77867;BME280;67271;59.120;37.970;2024-03-02T07:10:22;101658.63;;;3.03;76.79
77867;BME280;67271;59.120;37.970;2024-03-02T07:12:48;101658.44;;;3.06;76.96
77867;BME280;67271;59.120;37.970;2024-03-02T07:15:14;101658.19;;;3.09;76.56
77867;BME280;67271;59.120;37.970;2024-03-02T07:17:58;101662.13;;;3.16;76.44
77867;BME280;67271;59.120;37.970;2024-03-02T07:20:24;101665.44;;;3.20;76.73
77867;BME280;67271;59.120;37.970;2024-03-02T07:22:50;101668.22;;;3.18;76.57
77867;BME280;67271;59.120;37.970;2024-03-02T07:25:15;101670.38;;;3.13;76.72
77867;BME280;67271;59.120;37.970;2024-03-02T07:27:41;101665.16;;;3.11;76.49
77867;BME280;67271;59.120;37.970;2024-03-02T07:30:09;101676.50;;;3.15;76.34
77867;BME280;67271;59.120;37.970;2024-03-02T07:32:36;101671.88;;;3.17;76.64
77867;BME280;67271;59.120;37.970;2024-03-02T07:35:02;101681.03;;;3.26;76.24
77867;BME280;67271;59.120;37.970;2024-03-02T07:37:29;101679.63;;;3.33;75.82
77867;BME280;67271;59.120;37.970;2024-03-02T07:39:55;101676.84;;;3.34;75.71
77867;BME280;67271;59.120;37.970;2024-03-02T07:42:21;101669.56;;;3.36;75.93
77867;BME280;67271;59.120;37.970;2024-03-02T07:44:46;101688.06;;;3.39;76.42
77867;BME280;67271;59.120;37.970;2024-03-02T07:47:12;101680.97;;;3.38;76.27
77867;BME280;67271;59.120;37.970;2024-03-02T07:49:38;101685.06;;;3.44;76.23
77867;BME280;67271;59.120;37.970;2024-03-02T07:52:04;101688.06;;;3.39;76.00
77867;BME280;67271;59.120;37.970;2024-03-02T07:54:30;101675.22;;;3.44;76.33
77867;BME280;67271;59.120;37.970;2024-03-02T07:56:56;101684.19;;;3.43;75.98
77867;BME280;67271;59.120;37.970;2024-03-02T07:59:21;101692.22;;;3.43;75.88
77867;BME280;67271;59.120;37.970;2024-03-02T08:01:48;101692.34;;;3.42;76.11
77867;BME280;67271;59.120;37.970;2024-03-02T08:04:14;101687.66;;;3.33;76.19
77867;BME280;67271;59.120;37.970;2024-03-02T08:06:40;101696.97;;;3.27;76.03
77867;BME280;67271;59.120;37.970;2024-03-02T08:09:06;101698.47;;;3.31;75.79
77867;BME280;67271;59.120;37.970;2024-03-02T08:11:36;101698.34;;;3.33;75.70
77867;BME280;67271;59.120;37.970;2024-03-02T08:14:03;101695.34;;;3.37;75.62
77867;BME280;67271;59.120;37.970;2024-03-02T08:16:29;101701.88;;;3.33;76.03
77867;BME280;67271;59.120;37.970;2024-03-02T08:18:54;101700.91;;;3.34;75.74
77867;BME280;67271;59.120;37.970;2024-03-02T08:21:23;101700.91;;;3.34;75.97
77867;BME280;67271;59.120;37.970;2024-03-02T08:23:50;101705.81;;;3.40;75.64
77867;BME280;67271;59.120;37.970;2024-03-02T08:26:16;101695.50;;;3.47;75.88
77867;BME280;67271;59.120;37.970;2024-03-02T08:28:42;101699.59;;;3.53;75.75
77867;BME280;67271;59.120;37.970;2024-03-02T08:31:08;101703.22;;;3.52;75.66
77867;BME280;67271;59.120;37.970;2024-03-02T08:33:35;101698.94;;;3.49;75.15
77867;BME280;67271;59.120;37.970;2024-03-02T08:36:01;101700.00;;;3.46;75.58
77867;BME280;67271;59.120;37.970;2024-03-02T08:38:27;101700.75;;;3.48;75.33
77867;BME280;67271;59.120;37.970;2024-03-02T08:40:53;101700.00;;;3.46;75.26
77867;BME280;67271;59.120;37.970;2024-03-02T08:43:19;101697.00;;;3.51;75.16
77867;BME280;67271;59.120;37.970;2024-03-02T08:45:45;101705.91;;;3.52;75.59
77867;BME280;67271;59.120;37.970;2024-03-02T08:48:12;101704.94;;;3.53;74.99
77867;BME280;67271;59.120;37.970;2024-03-02T08:50:38;101699.88;;;3.61;75.36
77867;BME280;67271;59.120;37.970;2024-03-02T08:53:04;101697.91;;;3.63;75.29
77867;BME280;67271;59.120;37.970;2024-03-02T08:55:30;101697.19;;;3.61;75.57
77867;BME280;67271;59.120;37.970;2024-03-02T08:57:56;101697.41;;;3.58;75.43
77867;BME280;67271;59.120;37.970;2024-03-02T09:00:23;101703.38;;;3.61;75.24
77867;BME280;67271;59.120;37.970;2024-03-02T09:02:49;101700.59;;;3.63;74.80
77867;BME280;67271;59.120;37.970;2024-03-02T09:05:15;101702.75;;;3.58;75.05
77867;BME280;67271;59.120;37.970;2024-03-02T09:07:41;101700.19;;;3.56;75.03
77867;BME280;67271;59.120;37.970;2024-03-02T09:10:07;101694.09;;;3.54;75.02
77867;BME280;67271;59.120;37.970;2024-03-02T09:12:35;101693.97;;;3.56;74.92
77867;BME280;67271;59.120;37.970;2024-03-02T09:15:04;101693.09;;;3.44;74.68
77867;BME280;67271;59.120;37.970;2024-03-02T09:17:31;101688.19;;;3.38;74.36
77867;BME280;67271;59.120;37.970;2024-03-02T09:19:57;101694.38;;;3.38;74.42
77867;BME280;67271;59.120;37.970;2024-03-02T09:22:23;101690.16;;;3.47;73.58
77867;BME280;67271;59.120;37.970;2024-03-02T09:24:49;101695.41;;;3.48;73.71
77867;BME280;67271;59.120;37.970;2024-03-02T09:27:15;101692.72;;;3.48;73.38
77867;BME280;67271;59.120;37.970;2024-03-02T09:29:41;101692.28;;;3.55;73.57
77867;BME280;67271;59.120;37.970;2024-03-02T09:32:08;101682.81;;;3.62;73.05
77867;BME280;67271;59.120;37.970;2024-03-02T09:34:37;101688.91;;;3.64;73.54
77867;BME280;67271;59.120;37.970;2024-03-02T09:37:03;101676.28;;;3.66;73.36
77867;BME280;67271;59.120;37.970;2024-03-02T09:39:30;101679.34;;;3.72;72.77
77867;BME280;67271;59.120;37.970;2024-03-02T09:42:00;101685.06;;;3.68;72.93
77867;BME280;67271;59.120;37.970;2024-03-02T09:44:26;101677.16;;;3.66;73.27
77867;BME280;67271;59.120;37.970;2024-03-02T09:46:52;101681.63;;;3.66;72.89
77867;BME280;67271;59.120;37.970;2024-03-02T09:49:18;101682.44;;;3.55;73.19
77867;BME280;67271;59.120;37.970;2024-03-02T09:51:48;101685.00;;;3.57;72.58
77867;BME280;67271;59.120;37.970;2024-03-02T09:54:16;101687.56;;;3.58;72.65
77867;BME280;67271;59.120;37.970;2024-03-02T09:56:42;101691.19;;;3.57;72.77
77867;BME280;67271;59.120;37.970;2024-03-02T09:59:08;101685.84;;;3.57;72.62
77867;BME280;67271;59.120;37.970;2024-03-02T10:01:33;101681.25;;;3.59;72.50
77867;BME280;67271;59.120;37.970;2024-03-02T10:04:00;101678.78;;;3.56;72.55
77867;BME280;67271;59.120;37.970;2024-03-02T10:06:27;101675.16;;;3.57;72.65
77867;BME280;67271;59.120;37.970;2024-03-02T10:08:55;101665.50;;;3.55;72.03
77867;BME280;67271;59.120;37.970;2024-03-02T10:11:31;101671.97;;;3.52;72.21
77867;BME280;67271;59.120;37.970;2024-03-02T10:14:11;101671.97;;;3.52;72.05
77867;BME280;67271;59.120;37.970;2024-03-02T10:19:23;101669.63;;;3.47;72.20
77867;BME280;67271;59.120;37.970;2024-03-02T10:21:52;101668.34;;;3.40;72.32
77867;BME280;67271;59.120;37.970;2024-03-02T10:24:20;101680.78;;;3.41;72.12
77867;BME280;67271;59.120;37.970;2024-03-02T10:26:46;101675.53;;;3.40;72.24
77867;BME280;67271;59.120;37.970;2024-03-02T10:29:13;101686.31;;;3.51;72.17
77867;BME280;67271;59.120;37.970;2024-03-02T10:31:40;101681.81;;;3.52;71.65
77867;BME280;67271;59.120;37.970;2024-03-02T10:34:07;101678.56;;;3.59;71.58
77867;BME280;67271;59.120;37.970;2024-03-02T10:36:36;101671.22;;;3.74;71.07
77867;BME280;67271;59.120;37.970;2024-03-02T10:39:06;101678.28;;;3.75;71.32
77867;BME280;67271;59.120;37.970;2024-03-02T10:41:33;101680.22;;;3.73;71.31
77867;BME280;67271;59.120;37.970;2024-03-02T10:44:04;101670.81;;;3.67;71.60
77867;BME280;67271;59.120;37.970;2024-03-02T10:46:32;101680.97;;;3.75;71.55
77867;BME280;67271;59.120;37.970;2024-03-02T10:49:00;101676.56;;;3.74;71.91
77867;BME280;67271;59.120;37.970;2024-03-02T10:51:30;101679.25;;;3.74;71.87
77867;BME280;67271;59.120;37.970;2024-03-02T10:54:02;101679.28;;;3.61;71.86
77867;BME280;67271;59.120;37.970;2024-03-02T10:56:40;101686.13;;;3.41;71.93
77867;BME280;67271;59.120;37.970;2024-03-02T11:01:39;101689.84;;;3.52;72.23
77867;BME280;67271;59.120;37.970;2024-03-02T11:04:08;101684.50;;;3.52;71.69
77867;BME280;67271;59.120;37.970;2024-03-02T11:06:35;101686.53;;;3.48;71.94
77867;BME280;67271;59.120;37.970;2024-03-02T11:09:07;101688.59;;;3.44;71.70
77867;BME280;67271;59.120;37.970;2024-03-02T11:11:41;101684.19;;;3.43;71.70
77867;BME280;67271;59.120;37.970;2024-03-02T11:14:13;101685.72;;;3.35;72.01
77867;BME280;67271;59.120;37.970;2024-03-02T11:16:39;101692.78;;;3.36;71.71
77867;BME280;67271;59.120;37.970;2024-03-02T11:19:13;101688.50;;;3.33;72.05
77867;BME280;67271;59.120;37.970;2024-03-02T11:21:39;101685.88;;;3.21;71.61
77867;BME280;67271;59.120;37.970;2024-03-02T11:26:47;101681.66;;;3.05;71.71
77867;BME280;67271;59.120;37.970;2024-03-02T11:32:19;101682.81;;;3.01;72.00
77867;BME280;67271;59.120;37.970;2024-03-02T11:34:48;101686.28;;;2.91;71.83
77867;BME280;67271;59.120;37.970;2024-03-02T11:37:16;101684.03;;;2.85;71.74
77867;BME280;67271;59.120;37.970;2024-03-02T11:39:50;101688.97;;;2.78;71.84
77867;BME280;67271;59.120;37.970;2024-03-02T11:42:17;101686.72;;;2.72;72.10
77867;BME280;67271;59.120;37.970;2024-03-02T11:44:45;101693.25;;;2.68;72.03
77867;BME280;67271;59.120;37.970;2024-03-02T11:47:13;101684.16;;;2.70;71.53
77867;BME280;67271;59.120;37.970;2024-03-02T11:49:44;101688.88;;;2.67;71.63
77867;BME280;67271;59.120;37.970;2024-03-02T11:52:13;101684.59;;;2.64;71.47
77867;BME280;67271;59.120;37.970;2024-03-02T11:54:42;101686.94;;;2.69;71.78
77867;BME280;67271;59.120;37.970;2024-03-02T11:57:14;101690.13;;;2.74;71.59
77867;BME280;67271;59.120;37.970;2024-03-02T11:59:43;101685.53;;;2.76;71.05
77867;BME280;67271;59.120;37.970;2024-03-02T12:02:17;101685.84;;;2.71;71.33
77867;BME280;67271;59.120;37.970;2024-03-02T12:04:44;101689.06;;;2.64;71.28
77867;BME280;67271;59.120;37.970;2024-03-02T12:07:10;101687.50;;;2.61;71.80
77867;BME280;67271;59.120;37.970;2024-03-02T12:09:37;101688.34;;;2.62;71.46
77867;BME280;67271;59.120;37.970;2024-03-02T12:12:07;101694.44;;;2.51;71.24
77867;BME280;67271;59.120;37.970;2024-03-02T12:14:35;101689.72;;;2.42;71.79
77867;BME280;67271;59.120;37.970;2024-03-02T12:17:01;101694.00;;;2.45;71.77
77867;BME280;67271;59.120;37.970;2024-03-02T12:19:29;101695.47;;;2.49;71.25
77867;BME280;67271;59.120;37.970;2024-03-02T12:21:59;101697.63;;;2.44;71.60
77867;BME280;67271;59.120;37.970;2024-03-02T12:24:29;101698.38;;;2.46;71.81
77867;BME280;67271;59.120;37.970;2024-03-02T12:26:55;101695.47;;;2.49;71.45
77867;BME280;67271;59.120;37.970;2024-03-02T12:29:22;101686.53;;;2.37;71.36
77867;BME280;67271;59.120;37.970;2024-03-02T12:31:51;101690.38;;;2.33;71.55
77867;BME280;67271;59.120;37.970;2024-03-02T12:34:18;101690.47;;;2.31;71.71
77867;BME280;67271;59.120;37.970;2024-03-02T12:36:48;101687.56;;;2.22;71.22
77867;BME280;67271;59.120;37.970;2024-03-02T12:39:19;101689.28;;;2.23;71.22
77867;BME280;67271;59.120;37.970;2024-03-02T12:41:47;101687.47;;;2.23;71.75
77867;BME280;67271;59.120;37.970;2024-03-02T12:44:16;101687.72;;;2.33;71.70
77867;BME280;67271;59.120;37.970;2024-03-02T12:46:42;101689.63;;;2.31;71.35
77867;BME280;67271;59.120;37.970;2024-03-02T12:49:10;101704.03;;;2.28;71.92
77867;BME280;67271;59.120;37.970;2024-03-02T12:51:40;101689.72;;;2.17;71.76
77867;BME280;67271;59.120;37.970;2024-03-02T12:54:07;101688.28;;;2.11;71.63
77867;BME280;67271;59.120;37.970;2024-03-02T12:56:34;101691.81;;;2.12;71.75
77867;BME280;67271;59.120;37.970;2024-03-02T12:59:00;101684.47;;;2.15;71.88
77867;BME280;67271;59.120;37.970;2024-03-02T13:01:26;101696.44;;;2.10;71.93
77867;BME280;67271;59.120;37.970;2024-03-02T13:03:53;101693.97;;;2.07;71.67
77867;BME280;67271;59.120;37.970;2024-03-02T13:06:20;101692.69;;;2.12;71.95